sensor_id;sensor_type;location;lat;lon;timestamp;pressure;altitude;pressure_sealevel;temperature;humidity
35658;BME280;21126;48.308;11.750;2022-08-19T00:02:04;95839.19;;;23.89;84.37
35658;BME280;21126;48.308;11.750;2022-08-19T00:04:35;95841.81;;;23.89;84.50
35658;BME280;21126;48.308;11.750;2022-08-19T00:07:06;95852.03;;;24.00;83.10
35658;BME280;21126;48.308;11.750;2022-08-19T00:09:33;95855.19;;;23.96;83.71
35658;BME280;21126;48.308;11.750;2022-08-19T00:12:00;95855.66;;;23.99;83.24
35658;BME280;21126;48.308;11.750;2022-08-19T00:14:28;95853.00;;;23.99;83.50
35658;BME280;21126;48.308;11.750;2022-08-19T00:16:58;95855.31;;;24.02;82.93
35658;BME280;21126;48.308;11.750;2022-08-19T00:19:26;95844.78;;;23.94;83.49
35658;BME280;21126;48.308;11.750;2022-08-19T00:21:53;95837.69;;;23.87;84.03
35658;BME280;21126;48.308;11.750;2022-08-19T00:24:22;95835.72;;;23.80;84.67
35658;BME280;21126;48.308;11.750;2022-08-19T00:26:50;95830.44;;;23.80;84.84
35658;BME280;21126;48.308;11.750;2022-08-19T00:29:19;95822.22;;;23.75;85.26
35658;BME280;21126;48.308;11.750;2022-08-19T00:31:47;95806.69;;;23.72;85.41
35658;BME280;21126;48.308;11.750;2022-08-19T00:34:16;95803.91;;;23.65;85.93
35658;BME280;21126;48.308;11.750;2022-08-19T00:36:44;95797.94;;;23.63;86.16
35658;BME280;21126;48.308;11.750;2022-08-19T00:39:12;95794.78;;;23.68;85.69
35658;BME280;21126;48.308;11.750;2022-08-19T00:41:40;95804.72;;;23.66;86.10
35658;BME280;21126;48.308;11.750;2022-08-19T00:44:16;95801.97;;;23.59;87.09
35658;BME280;21126;48.308;11.750;2022-08-19T00:46:48;95790.59;;;23.50;87.24
35658;BME280;21126;48.308;11.750;2022-08-19T00:49:38;95802.06;;;23.66;86.36
35658;BME280;21126;48.308;11.750;2022-08-19T00:52:17;95799.78;;;23.63;85.86
35658;BME280;21126;48.308;11.750;2022-08-19T00:54:45;95787.53;;;23.62;86.01
35658;BME280;21126;48.308;11.750;2022-08-19T00:57:27;95778.81;;;23.53;87.05
35658;BME280;21126;48.308;11.750;2022-08-19T00:59:58;95783.00;;;23.47;87.75
35658;BME280;21126;48.308;11.750;2022-08-19T01:02:30;95779.53;;;23.47;87.51
35658;BME280;21126;48.308;11.750;2022-08-19T01:04:59;95778.72;;;23.46;87.51
35658;BME280;21126;48.308;11.750;2022-08-19T01:07:26;95796.19;;;23.56;86.54
35658;BME280;21126;48.308;11.750;2022-08-19T01:10:02;95809.94;;;23.51;87.02
35658;BME280;21126;48.308;11.750;2022-08-19T01:12:30;95807.47;;;23.49;87.41
35658;BME280;21126;48.308;11.750;2022-08-19T01:14:58;95810.94;;;23.50;87.81
35658;BME280;21126;48.308;11.750;2022-08-19T01:17:27;95799.69;;;23.48;87.61
35658;BME280;21126;48.308;11.750;2022-08-19T01:19:54;95791.94;;;23.46;87.86
35658;BME280;21126;48.308;11.750;2022-08-19T01:24:59;95795.13;;;23.42;88.42
35658;BME280;21126;48.308;11.750;2022-08-19T01:27:26;95801.06;;;23.36;89.45
35658;BME280;21126;48.308;11.750;2022-08-19T01:30:01;95806.38;;;23.36;89.46
35658;BME280;21126;48.308;11.750;2022-08-19T01:32:28;95807.50;;;23.41;88.89
35658;BME280;21126;48.308;11.750;2022-08-19T01:35:00;95792.28;;;23.43;88.47
35658;BME280;21126;48.308;11.750;2022-08-19T01:40:18;95797.97;;;23.32;90.10
35658;BME280;21126;48.308;11.750;2022-08-19T01:42:49;95815.78;;;23.38;89.66
35658;BME280;21126;48.308;11.750;2022-08-19T01:45:19;95813.31;;;23.37;90.62
35658;BME280;21126;48.308;11.750;2022-08-19T01:47:47;95815.78;;;23.38;89.43
35658;BME280;21126;48.308;11.750;2022-08-19T01:50:30;95821.25;;;23.37;90.35
35658;BME280;21126;48.308;11.750;2022-08-19T01:52:58;95820.44;;;23.36;89.84
35658;BME280;21126;48.308;11.750;2022-08-19T01:55:35;95827.06;;;23.32;90.32
35658;BME280;21126;48.308;11.750;2022-08-19T01:58:18;95834.34;;;23.30;91.17
35658;BME280;21126;48.308;11.750;2022-08-19T02:00:48;95832.31;;;23.40;89.58
35658;BME280;21126;48.308;11.750;2022-08-19T02:03:15;95839.41;;;23.40;90.15
35658;BME280;21126;48.308;11.750;2022-08-19T02:05:43;95845.72;;;23.39;89.93
35658;BME280;21126;48.308;11.750;2022-08-19T02:08:11;95836.75;;;23.48;89.85
35658;BME280;21126;48.308;11.750;2022-08-19T02:10:43;95826.97;;;23.48;89.29
35658;BME280;21126;48.308;11.750;2022-08-19T02:13:12;95823.34;;;23.49;88.73
35658;BME280;21126;48.308;11.750;2022-08-19T02:15:40;95821.66;;;23.57;88.83
35658;BME280;21126;48.308;11.750;2022-08-19T02:18:08;95831.16;;;23.74;87.48
35658;BME280;21126;48.308;11.750;2022-08-19T02:20:36;95836.41;;;23.82;85.47
35658;BME280;21126;48.308;11.750;2022-08-19T02:23:05;95846.88;;;23.67;87.08
35658;BME280;21126;48.308;11.750;2022-08-19T02:25:40;95839.81;;;23.60;87.97
35658;BME280;21126;48.308;11.750;2022-08-19T02:28:07;95843.69;;;23.49;88.47
35658;BME280;21126;48.308;11.750;2022-08-19T02:30:34;95844.53;;;23.41;89.64
35658;BME280;21126;48.308;11.750;2022-08-19T02:33:01;95847.84;;;23.43;90.32
35658;BME280;21126;48.308;11.750;2022-08-19T02:35:28;95852.13;;;23.44;89.01
35658;BME280;21126;48.308;11.750;2022-08-19T02:37:55;95853.78;;;23.45;88.93
35658;BME280;21126;48.308;11.750;2022-08-19T02:40:40;95857.03;;;23.56;88.18
35658;BME280;21126;48.308;11.750;2022-08-19T02:43:10;95853.22;;;23.58;88.13
35658;BME280;21126;48.308;11.750;2022-08-19T02:45:38;95857.56;;;23.51;88.76
35658;BME280;21126;48.308;11.750;2022-08-19T02:48:08;95839.91;;;23.43;89.01
35658;BME280;21126;48.308;11.750;2022-08-19T02:50:49;95832.50;;;23.39;90.00
35658;BME280;21126;48.308;11.750;2022-08-19T02:53:27;95813.50;;;23.35;90.50
35658;BME280;21126;48.308;11.750;2022-08-19T02:55:54;95815.59;;;23.40;90.02
35658;BME280;21126;48.308;11.750;2022-08-19T02:58:22;95807.22;;;23.36;90.07
35658;BME280;21126;48.308;11.750;2022-08-19T03:00:53;95788.88;;;23.35;91.10
35658;BME280;21126;48.308;11.750;2022-08-19T03:03:21;95790.84;;;23.32;90.44
35658;BME280;21126;48.308;11.750;2022-08-19T03:05:48;95791.03;;;23.31;91.35
35658;BME280;21126;48.308;11.750;2022-08-19T03:08:23;95787.84;;;23.36;91.09
35658;BME280;21126;48.308;11.750;2022-08-19T03:10:51;95807.03;;;23.38;89.81
35658;BME280;21126;48.308;11.750;2022-08-19T03:13:20;95806.38;;;23.36;90.47
35658;BME280;21126;48.308;11.750;2022-08-19T03:15:48;95806.59;;;23.26;90.88
35658;BME280;21126;48.308;11.750;2022-08-19T03:18:16;95810.56;;;23.30;90.92
35658;BME280;21126;48.308;11.750;2022-08-19T03:20:50;95815.84;;;23.30;90.30
35658;BME280;21126;48.308;11.750;2022-08-19T03:23:18;95817.28;;;23.32;90.69
35658;BME280;21126;48.308;11.750;2022-08-19T03:25:49;95821.44;;;23.27;91.09
35658;BME280;21126;48.308;11.750;2022-08-19T03:28:37;95805.75;;;23.25;91.30
35658;BME280;21126;48.308;11.750;2022-08-19T03:31:12;95819.50;;;23.21;91.94
35658;BME280;21126;48.308;11.750;2022-08-19T03:33:59;95816.22;;;23.19;92.47
35658;BME280;21126;48.308;11.750;2022-08-19T03:36:27;95830.06;;;23.21;91.55
35658;BME280;21126;48.308;11.750;2022-08-19T03:39:00;95815.53;;;23.25;91.39
35658;BME280;21126;48.308;11.750;2022-08-19T03:41:35;95811.88;;;23.26;90.94
35658;BME280;21126;48.308;11.750;2022-08-19T03:44:13;95820.34;;;23.21;91.03
35658;BME280;21126;48.308;11.750;2022-08-19T03:46:50;95819.84;;;23.18;91.77
35658;BME280;21126;48.308;11.750;2022-08-19T03:49:19;95830.41;;;23.18;91.80
35658;BME280;21126;48.308;11.750;2022-08-19T03:51:48;95833.72;;;23.20;91.21
35658;BME280;21126;48.308;11.750;2022-08-19T03:54:21;95836.50;;;23.26;90.98
35658;BME280;21126;48.308;11.750;2022-08-19T03:56:52;95834.50;;;23.28;90.26
35658;BME280;21126;48.308;11.750;2022-08-19T03:59:25;95825.13;;;23.26;90.43
35658;BME280;21126;48.308;11.750;2022-08-19T04:01:59;95823.31;;;23.18;91.15
35658;BME280;21126;48.308;11.750;2022-08-19T04:04:27;95819.50;;;23.21;91.19
35658;BME280;21126;48.308;11.750;2022-08-19T04:06:55;95828.41;;;23.20;90.98
35658;BME280;21126;48.308;11.750;2022-08-19T04:09:23;95827.75;;;23.26;90.71
35658;BME280;21126;48.308;11.750;2022-08-19T04:11:53;95830.06;;;23.29;90.27
35658;BME280;21126;48.308;11.750;2022-08-19T04:14:27;95822.81;;;23.23;90.57
35658;BME280;21126;48.308;11.750;2022-08-19T04:16:57;95819.50;;;23.21;91.41
35658;BME280;21126;48.308;11.750;2022-08-19T04:19:25;95809.28;;;23.18;91.80
35658;BME280;21126;48.308;11.750;2022-08-19T04:21:54;95814.09;;;23.14;91.67
35658;BME280;21126;48.308;11.750;2022-08-19T04:24:22;95819.84;;;23.18;91.53
35658;BME280;21126;48.308;11.750;2022-08-19T04:26:50;95824.50;;;23.15;91.35
35658;BME280;21126;48.308;11.750;2022-08-19T04:29:22;95822.16;;;23.12;91.57
35658;BME280;21126;48.308;11.750;2022-08-19T04:31:54;95819.69;;;23.11;91.86
35658;BME280;21126;48.308;11.750;2022-08-19T04:34:25;95819.38;;;23.14;91.92
35658;BME280;21126;48.308;11.750;2022-08-19T04:36:57;95822.31;;;23.19;91.18
35658;BME280;21126;48.308;11.750;2022-08-19T04:39:30;95833.56;;;23.21;90.65
35658;BME280;21126;48.308;11.750;2022-08-19T04:42:17;95842.78;;;23.25;90.15
35658;BME280;21126;48.308;11.750;2022-08-19T04:45:12;95843.31;;;23.21;91.01
35658;BME280;21126;48.308;11.750;2022-08-19T04:47:42;95851.56;;;23.18;91.66
35658;BME280;21126;48.308;11.750;2022-08-19T04:50:25;95844.47;;;23.18;91.67
35658;BME280;21126;48.308;11.750;2022-08-19T04:52:52;95846.47;;;23.16;91.73
35658;BME280;21126;48.308;11.750;2022-08-19T04:55:20;95855.38;;;23.15;91.60
35658;BME280;21126;48.308;11.750;2022-08-19T04:57:46;95856.88;;;23.18;91.59
35658;BME280;21126;48.308;11.750;2022-08-19T05:00:13;95855.22;;;23.17;91.88
35658;BME280;21126;48.308;11.750;2022-08-19T05:02:40;95859.50;;;23.26;91.69
35658;BME280;21126;48.308;11.750;2022-08-19T05:05:08;95865.75;;;23.33;91.84
35658;BME280;21126;48.308;11.750;2022-08-19T05:07:35;95868.22;;;23.35;90.28
35658;BME280;21126;48.308;11.750;2022-08-19T05:10:05;95864.69;;;23.50;88.40
35658;BME280;21126;48.308;11.750;2022-08-19T05:12:33;95864.25;;;23.70;85.52
35658;BME280;21126;48.308;11.750;2022-08-19T05:15:02;95867.38;;;23.74;85.72
35658;BME280;21126;48.308;11.750;2022-08-19T05:17:29;95876.13;;;23.74;85.30
35658;BME280;21126;48.308;11.750;2022-08-19T05:20:06;95874.13;;;23.76;85.31
35658;BME280;21126;48.308;11.750;2022-08-19T05:22:52;95880.72;;;23.80;85.29
35658;BME280;21126;48.308;11.750;2022-08-19T05:25:20;95878.25;;;23.79;85.10
35658;BME280;21126;48.308;11.750;2022-08-19T05:27:48;95875.25;;;23.82;84.57
35658;BME280;21126;48.308;11.750;2022-08-19T05:30:16;95880.72;;;23.89;83.99
35658;BME280;21126;48.308;11.750;2022-08-19T05:32:43;95884.19;;;23.89;84.04
35658;BME280;21126;48.308;11.750;2022-08-19T05:35:10;95881.53;;;23.89;84.15
35658;BME280;21126;48.308;11.750;2022-08-19T05:37:39;95877.19;;;23.96;83.73
35658;BME280;21126;48.308;11.750;2022-08-19T05:40:10;95879.03;;;23.96;83.52
35658;BME280;21126;48.308;11.750;2022-08-19T05:42:37;95875.03;;;24.00;83.25
35658;BME280;21126;48.308;11.750;2022-08-19T05:45:05;95872.66;;;24.05;82.86
35658;BME280;21126;48.308;11.750;2022-08-19T05:47:32;95872.38;;;24.00;82.72
35658;BME280;21126;48.308;11.750;2022-08-19T05:49:59;95864.78;;;23.97;83.50
35658;BME280;21126;48.308;11.750;2022-08-19T05:52:30;95869.44;;;23.95;83.72
35658;BME280;21126;48.308;11.750;2022-08-19T05:54:59;95867.50;;;23.89;84.10
35658;BME280;21126;48.308;11.750;2022-08-19T05:57:26;95865.31;;;23.92;83.50
35658;BME280;21126;48.308;11.750;2022-08-19T05:59:55;95870.59;;;23.92;83.51
35658;BME280;21126;48.308;11.750;2022-08-19T06:02:33;95865.13;;;23.94;83.53
35658;BME280;21126;48.308;11.750;2022-08-19T06:05:04;95865.44;;;23.99;83.24
35658;BME280;21126;48.308;11.750;2022-08-19T06:07:39;95867.00;;;24.08;81.75
35658;BME280;21126;48.308;11.750;2022-08-19T06:10:10;95857.09;;;24.10;81.66
35658;BME280;21126;48.308;11.750;2022-08-19T06:12:37;95864.38;;;24.08;82.15
35658;BME280;21126;48.308;11.750;2022-08-19T06:15:14;95861.09;;;24.06;82.56
35658;BME280;21126;48.308;11.750;2022-08-19T06:17:42;95865.72;;;24.04;82.53
35658;BME280;21126;48.308;11.750;2022-08-19T06:20:14;95876.44;;;24.11;82.08
35658;BME280;21126;48.308;11.750;2022-08-19T06:22:46;95879.53;;;24.14;82.97
35658;BME280;21126;48.308;11.750;2022-08-19T06:25:14;95873.66;;;24.04;84.21
35658;BME280;21126;48.308;11.750;2022-08-19T06:27:41;95888.09;;;24.01;84.66
35658;BME280;21126;48.308;11.750;2022-08-19T06:30:28;95887.00;;;23.88;85.79
35658;BME280;21126;48.308;11.750;2022-08-19T06:32:56;95880.53;;;23.90;84.75
35658;BME280;21126;48.308;11.750;2022-08-19T06:35:23;95877.22;;;23.88;85.68
35658;BME280;21126;48.308;11.750;2022-08-19T06:37:49;95873.34;;;24.07;84.72
35658;BME280;21126;48.308;11.750;2022-08-19T06:40:16;95870.38;;;24.02;84.56
35658;BME280;21126;48.308;11.750;2022-08-19T06:42:43;95871.69;;;24.06;85.77
35658;BME280;21126;48.308;11.750;2022-08-19T06:45:22;95872.84;;;24.04;86.41
35658;BME280;21126;48.308;11.750;2022-08-19T06:47:52;95873.38;;;23.99;87.06
35658;BME280;21126;48.308;11.750;2022-08-19T06:50:23;95870.25;;;23.95;88.24
35658;BME280;21126;48.308;11.750;2022-08-19T06:52:50;95868.44;;;23.96;89.07
35658;BME280;21126;48.308;11.750;2022-08-19T06:55:18;95878.06;;;23.89;89.55
35658;BME280;21126;48.308;11.750;2022-08-19T06:57:46;95882.22;;;23.83;90.78
35658;BME280;21126;48.308;11.750;2022-08-19T07:00:14;95882.03;;;23.93;89.46
